createdAt,value
2022-08-03T00:00:26.454Z,20.95
2022-08-03T00:02:53.938Z,20.94
2022-08-03T00:05:21.191Z,20.94
2022-08-03T00:07:48.589Z,20.96
2022-08-03T00:10:17.118Z,20.96
2022-08-03T00:12:44.237Z,20.96
2022-08-03T00:15:16.418Z,20.96
2022-08-03T00:17:52.118Z,20.95
2022-08-03T00:20:21.733Z,20.93
2022-08-03T00:22:49.616Z,20.91
2022-08-03T00:25:16.796Z,20.89
2022-08-03T00:27:44.087Z,20.88
2022-08-03T00:30:11.744Z,20.87
2022-08-03T00:32:44.280Z,20.87
2022-08-03T00:35:32.511Z,20.86
2022-08-03T00:37:59.862Z,20.85
2022-08-03T00:40:27.011Z,20.84
2022-08-03T00:42:55.899Z,20.85
2022-08-03T00:45:28.053Z,20.87
2022-08-03T00:47:55.677Z,20.87
2022-08-03T00:50:23.980Z,20.88
2022-08-03T00:52:55.945Z,20.89
2022-08-03T00:55:23.164Z,20.88
2022-08-03T00:57:50.512Z,20.88
2022-08-03T01:00:25.579Z,20.88
2022-08-03T01:02:53.128Z,20.88
2022-08-03T01:05:23.082Z,20.88
2022-08-03T01:08:23.214Z,20.89
2022-08-03T01:10:54.849Z,20.88
2022-08-03T01:14:02.023Z,20.87
2022-08-03T01:16:37.007Z,20.86
2022-08-03T01:19:13.264Z,20.86
2022-08-03T01:21:49.004Z,20.86
2022-08-03T01:24:29.498Z,20.85
2022-08-03T01:27:21.970Z,20.83
2022-08-03T01:30:24.888Z,20.83
2022-08-03T01:33:01.830Z,20.84
2022-08-03T01:35:51.682Z,20.83
2022-08-03T01:38:33.728Z,20.82
2022-08-03T01:41:17.845Z,20.82
2022-08-03T01:44:26.609Z,20.82
2022-08-03T01:46:36.120Z,20.84
2022-08-03T01:49:09.141Z,20.85
2022-08-03T01:51:58.422Z,20.83
2022-08-03T01:54:26.331Z,20.84
2022-08-03T01:56:54.719Z,20.83
2022-08-03T01:59:22.141Z,20.83
2022-08-03T02:02:31.836Z,20.83
2022-08-03T02:04:38.164Z,20.85
2022-08-03T02:07:06.743Z,20.85
2022-08-03T02:09:34.420Z,20.84
2022-08-03T02:12:01.847Z,20.84
2022-08-03T02:14:29.223Z,20.85
2022-08-03T02:16:56.978Z,20.86
2022-08-03T02:19:26.701Z,20.87
2022-08-03T02:21:57.272Z,20.86
2022-08-03T02:24:29.347Z,20.86
2022-08-03T02:26:57.128Z,20.87
2022-08-03T02:29:39.515Z,20.88
2022-08-03T02:32:14.812Z,20.89
2022-08-03T02:34:45.255Z,20.88
2022-08-03T02:37:12.995Z,20.87
2022-08-03T02:39:40.714Z,20.87
2022-08-03T02:42:09.739Z,20.86
2022-08-03T02:44:39.851Z,20.85
2022-08-03T02:47:10.373Z,20.84
2022-08-03T02:49:51.658Z,20.83
2022-08-03T02:52:21.689Z,20.82
2022-08-03T02:54:52.272Z,20.81
2022-08-03T02:57:20.109Z,20.79
2022-08-03T02:59:47.628Z,20.80
2022-08-03T03:02:16.519Z,20.79
2022-08-03T03:05:52.873Z,20.77
2022-08-03T03:07:35.335Z,20.77
2022-08-03T03:10:12.783Z,20.74
2022-08-03T03:12:41.195Z,20.72
2022-08-03T03:15:08.935Z,20.71
2022-08-03T03:17:37.483Z,20.69
2022-08-03T03:20:06.225Z,20.66
2022-08-03T03:22:34.106Z,20.65
2022-08-03T03:25:01.724Z,20.63
2022-08-03T03:27:29.227Z,20.62
2022-08-03T03:29:57.815Z,20.60
2022-08-03T03:32:27.516Z,20.60
2022-08-03T03:34:55.301Z,20.59
2022-08-03T03:37:22.470Z,20.59
2022-08-03T03:39:49.557Z,20.59
2022-08-03T03:42:16.943Z,20.61
2022-08-03T03:44:44.402Z,20.61
2022-08-03T03:47:11.594Z,20.63
2022-08-03T03:49:41.031Z,20.64
2022-08-03T03:52:08.169Z,20.64
2022-08-03T03:54:42.210Z,20.64
2022-08-03T03:57:10.471Z,20.65
2022-08-03T03:59:41.992Z,20.67
2022-08-03T04:02:09.964Z,20.68
2022-08-03T04:04:57.500Z,20.70
2022-08-03T04:07:44.623Z,20.72
2022-08-03T04:10:37.725Z,20.74
2022-08-03T04:13:09.897Z,20.74
2022-08-03T04:15:38.520Z,20.78
2022-08-03T04:18:07.005Z,20.80
2022-08-03T04:20:35.570Z,20.81
2022-08-03T04:23:03.058Z,20.84
2022-08-03T04:25:40.492Z,20.85
2022-08-03T04:28:30.652Z,20.88
2022-08-03T04:30:56.853Z,20.91
2022-08-03T04:33:29.415Z,20.93
2022-08-03T04:36:02.825Z,20.96
2022-08-03T04:38:37.571Z,20.99
2022-08-03T04:41:04.989Z,21.01
2022-08-03T04:43:33.731Z,21.02
2022-08-03T04:46:01.695Z,21.04
2022-08-03T04:48:28.825Z,21.08
2022-08-03T04:50:56.022Z,21.11
2022-08-03T04:53:23.255Z,21.14
2022-08-03T04:55:50.475Z,21.17
2022-08-03T04:58:17.607Z,21.22
2022-08-03T05:00:45.619Z,21.26
2022-08-03T05:03:23.640Z,21.28
2022-08-03T05:06:09.961Z,21.32
2022-08-03T05:08:46.327Z,21.34
2022-08-03T05:11:15.973Z,21.39
2022-08-03T05:13:44.478Z,21.43
2022-08-03T05:16:12.155Z,21.46
2022-08-03T05:18:39.782Z,21.51
2022-08-03T05:21:06.874Z,21.54
2022-08-03T05:23:34.040Z,21.60
2022-08-03T05:26:01.184Z,21.63
2022-08-03T05:28:28.380Z,21.68
2022-08-03T05:30:55.474Z,21.75
2022-08-03T05:33:22.584Z,21.83
2022-08-03T05:36:02.171Z,21.92
2022-08-03T05:38:33.906Z,22.01
2022-08-03T05:41:23.750Z,22.09
2022-08-03T05:43:52.384Z,22.16
2022-08-03T05:46:20.413Z,22.24
2022-08-03T05:48:47.684Z,22.29
2022-08-03T05:53:42.949Z,22.46
2022-08-03T05:56:14.639Z,22.53
2022-08-03T05:58:48.702Z,22.62
2022-08-03T06:01:16.821Z,22.73
2022-08-03T06:03:45.258Z,22.81
2022-08-03T06:06:12.526Z,22.90
2022-08-03T06:08:41.056Z,22.97
2022-08-03T06:11:08.261Z,23.07
2022-08-03T06:17:22.723Z,23.25
2022-08-03T06:19:52.563Z,23.31
2022-08-03T06:22:20.735Z,23.41
2022-08-03T06:24:53.255Z,23.50
2022-08-03T06:27:20.949Z,23.63
2022-08-03T06:30:04.339Z,23.71
2022-08-03T06:32:31.419Z,23.77
2022-08-03T06:34:58.517Z,23.81
2022-08-03T06:37:27.058Z,23.96
2022-08-03T06:39:54.512Z,24.07
2022-08-03T06:42:22.651Z,24.14
2022-08-03T06:44:50.091Z,24.24
2022-08-03T06:47:17.284Z,24.34
2022-08-03T06:49:44.549Z,24.45
2022-08-03T06:52:37.603Z,24.58
2022-08-03T06:55:06.261Z,24.62
2022-08-03T06:57:33.761Z,24.75
2022-08-03T07:00:09.141Z,24.88
2022-08-03T07:02:39.781Z,24.96
2022-08-03T07:05:07.954Z,25.07
2022-08-03T07:07:35.255Z,25.23
2022-08-03T07:10:02.553Z,25.32
2022-08-03T07:12:30.212Z,25.30
2022-08-03T07:15:01.308Z,25.38
2022-08-03T07:17:30.864Z,25.54
2022-08-03T07:19:58.261Z,25.64
2022-08-03T07:22:25.396Z,25.83
2022-08-03T07:24:52.578Z,25.91
2022-08-03T07:27:19.715Z,25.97
2022-08-03T07:29:46.823Z,26.00
2022-08-03T07:32:14.222Z,26.13
2022-08-03T07:34:41.469Z,26.03
2022-08-03T07:37:08.814Z,26.14
2022-08-03T07:39:35.928Z,26.13
2022-08-03T07:42:03.223Z,26.25
2022-08-03T07:44:30.334Z,26.31
2022-08-03T07:46:57.781Z,26.46
2022-08-03T07:49:25.408Z,26.64
2022-08-03T07:52:11.572Z,26.81
2022-08-03T07:54:38.769Z,26.97
2022-08-03T07:57:05.890Z,27.01
2022-08-03T07:59:57.214Z,27.15
2022-08-03T08:02:22.262Z,27.16
2022-08-03T08:04:49.389Z,27.22
2022-08-03T08:07:16.836Z,27.25
2022-08-03T08:09:45.455Z,27.33
2022-08-03T08:12:15.129Z,27.42
2022-08-03T08:14:45.764Z,27.51
2022-08-03T08:17:13.516Z,27.64
2022-08-03T08:19:41.500Z,27.74
2022-08-03T08:22:19.719Z,27.68
2022-08-03T08:24:55.887Z,27.79
2022-08-03T08:27:23.078Z,27.91
2022-08-03T08:29:55.341Z,27.91
2022-08-03T08:32:23.559Z,28.10
2022-08-03T08:34:51.015Z,28.10
2022-08-03T08:37:18.228Z,28.23
2022-08-03T08:39:45.376Z,28.36
2022-08-03T08:42:12.541Z,28.42
2022-08-03T08:44:39.765Z,28.41
2022-08-03T08:47:08.190Z,28.49
2022-08-03T08:49:37.096Z,28.61
2022-08-03T08:52:24.930Z,28.64
2022-08-03T08:54:56.434Z,28.67
2022-08-03T08:57:42.750Z,28.75
2022-08-03T09:00:14.507Z,28.83
2022-08-03T09:02:45.300Z,28.79
2022-08-03T09:05:13.665Z,28.88
2022-08-03T09:07:42.039Z,28.96
2022-08-03T09:10:13.281Z,29.00
2022-08-03T09:12:45.872Z,29.15
2022-08-03T09:15:32.767Z,29.27
2022-08-03T09:18:01.808Z,29.26
2022-08-03T09:20:33.835Z,29.38
2022-08-03T09:23:26.263Z,29.45
2022-08-03T09:26:00.151Z,29.65
2022-08-03T09:29:00.752Z,29.83
2022-08-03T09:31:30.300Z,29.79
2022-08-03T09:34:00.996Z,29.77
2022-08-03T09:36:38.041Z,29.78
2022-08-03T09:39:10.772Z,29.71
2022-08-03T09:41:39.324Z,29.63
2022-08-03T09:44:06.608Z,29.61
2022-08-03T09:46:51.029Z,29.81
2022-08-03T09:49:18.263Z,30.03
2022-08-03T09:52:31.835Z,30.22
2022-08-03T09:54:32.987Z,30.24
2022-08-03T09:57:00.252Z,30.44
2022-08-03T09:59:29.519Z,30.60
2022-08-03T10:01:57.672Z,30.53
2022-08-03T10:04:25.241Z,30.55
2022-08-03T10:07:07.548Z,30.68
2022-08-03T10:09:35.538Z,30.74
2022-08-03T10:12:12.824Z,30.79
2022-08-03T10:14:41.880Z,30.88
2022-08-03T10:17:11.869Z,31.04
2022-08-03T10:19:39.070Z,31.10
2022-08-03T10:22:27.806Z,31.13
2022-08-03T10:25:07.717Z,31.19
2022-08-03T10:27:37.741Z,31.34
2022-08-03T10:30:09.920Z,31.58
2022-08-03T10:32:50.344Z,31.69
2022-08-03T10:35:21.542Z,31.75
2022-08-03T10:38:02.366Z,31.47
2022-08-03T10:40:49.482Z,31.60
2022-08-03T10:43:23.106Z,31.67
2022-08-03T10:45:50.540Z,31.74
2022-08-03T10:48:18.893Z,31.91
2022-08-03T10:50:47.305Z,31.78
2022-08-03T10:53:16.552Z,31.84
2022-08-03T10:56:05.619Z,31.57
2022-08-03T10:58:57.381Z,31.86
2022-08-03T11:01:59.117Z,32.14
2022-08-03T11:04:30.030Z,32.46
2022-08-03T11:07:23.228Z,32.67
2022-08-03T11:09:52.923Z,32.63
2022-08-03T11:12:30.284Z,32.69
2022-08-03T11:15:10.196Z,32.85
2022-08-03T11:17:46.311Z,33.10
2022-08-03T11:20:53.595Z,33.41
2022-08-03T11:24:04.050Z,33.44
2022-08-03T11:26:34.208Z,33.41
2022-08-03T11:29:31.315Z,33.24
2022-08-03T11:31:58.606Z,33.13
2022-08-03T11:34:26.127Z,33.38
2022-08-03T11:37:18.358Z,33.16
2022-08-03T11:39:47.143Z,33.31
2022-08-03T11:42:23.182Z,33.60
2022-08-03T11:44:51.942Z,33.77
2022-08-03T11:47:20.840Z,33.76
2022-08-03T11:49:49.068Z,33.85
2022-08-03T11:52:16.939Z,34.04
2022-08-03T11:54:44.712Z,34.23
2022-08-03T11:57:11.905Z,34.38
2022-08-03T11:59:39.030Z,34.53
2022-08-03T12:02:12.908Z,34.79
2022-08-03T12:05:02.581Z,35.09
2022-08-03T12:08:03.905Z,35.17
2022-08-03T12:10:17.539Z,35.32
2022-08-03T12:12:46.727Z,35.35
2022-08-03T12:15:14.042Z,35.26
2022-08-03T12:17:41.635Z,35.39
2022-08-03T12:20:10.326Z,35.65
2022-08-03T12:22:40.788Z,35.86
2022-08-03T12:25:09.577Z,36.07
2022-08-03T12:27:36.928Z,36.22
2022-08-03T12:30:04.664Z,36.05
2022-08-03T12:32:31.849Z,36.21
2022-08-03T12:35:01.254Z,36.01
2022-08-03T12:37:29.538Z,36.33
2022-08-03T12:40:09.574Z,36.67
2022-08-03T12:42:39.333Z,36.91
2022-08-03T12:45:38.595Z,36.84
2022-08-03T12:48:09.377Z,36.71
2022-08-03T12:50:37.728Z,36.51
2022-08-03T12:53:07.969Z,36.17
2022-08-03T12:55:40.064Z,36.28
2022-08-03T12:58:34.693Z,36.46
2022-08-03T13:01:05.275Z,36.55
2022-08-03T13:03:52.718Z,36.62
2022-08-03T13:06:22.769Z,36.93
2022-08-03T13:08:51.532Z,37.36
2022-08-03T13:11:47.639Z,37.56
2022-08-03T13:14:16.728Z,37.78
2022-08-03T13:16:49.108Z,37.98
2022-08-03T13:19:16.362Z,38.19
2022-08-03T13:25:31.707Z,38.29
2022-08-03T13:28:03.619Z,38.08
2022-08-03T13:30:32.143Z,38.48
2022-08-03T13:33:00.437Z,38.31
2022-08-03T13:35:27.515Z,38.56
2022-08-03T13:37:54.614Z,38.62
2022-08-03T13:40:23.540Z,38.87
2022-08-03T13:42:57.272Z,39.34
2022-08-03T13:45:24.384Z,39.74
2022-08-03T13:47:51.984Z,39.88
2022-08-03T13:50:19.080Z,40.10
2022-08-03T13:52:49.174Z,40.42
2022-08-03T13:55:16.258Z,40.48
2022-08-03T13:58:03.026Z,40.60
2022-08-03T14:00:30.434Z,40.72
2022-08-03T14:03:05.073Z,40.80
2022-08-03T14:05:32.885Z,40.54
2022-08-03T14:08:05.619Z,40.81
2022-08-03T14:10:34.775Z,41.52
2022-08-03T14:13:01.909Z,42.13
2022-08-03T14:15:29.088Z,42.90
2022-08-03T14:17:58.633Z,43.89
2022-08-03T14:20:38.984Z,44.58
2022-08-03T14:23:16.408Z,46.30
2022-08-03T14:25:50.406Z,48.13
2022-08-03T14:28:22.778Z,49.18
2022-08-03T14:30:53.749Z,50.60
2022-08-03T14:33:20.908Z,52.89
2022-08-03T14:35:48.408Z,53.52
2022-08-03T14:38:15.599Z,54.81
2022-08-03T14:40:43.076Z,54.71
2022-08-03T14:43:10.268Z,56.04
2022-08-03T14:45:38.187Z,55.69
2022-08-03T14:50:34.481Z,54.91
2022-08-03T14:50:53.019Z,56.27
2022-08-03T14:53:20.582Z,58.29
2022-08-03T14:55:50.495Z,58.28
2022-08-03T14:58:21.439Z,58.71
2022-08-03T15:00:49.884Z,59.20
2022-08-03T15:03:20.130Z,59.19
2022-08-03T15:05:47.398Z,58.60
2022-08-03T15:08:14.546Z,55.02
2022-08-03T15:10:44.564Z,57.55
2022-08-03T15:13:13.373Z,59.45
2022-08-03T15:15:40.816Z,61.28
2022-08-03T15:18:08.411Z,61.84
2022-08-03T15:20:51.049Z,61.23
2022-08-03T15:23:18.468Z,62.91
2022-08-03T15:26:30.330Z,62.69
2022-08-03T15:28:33.577Z,64.00
2022-08-03T15:31:01.734Z,62.75
2022-08-03T15:33:29.387Z,61.56
2022-08-03T15:35:56.842Z,61.38
2022-08-03T15:38:26.224Z,61.07
2022-08-03T15:40:54.965Z,60.77
2022-08-03T15:43:23.370Z,61.18
2022-08-03T15:46:12.844Z,61.30
2022-08-03T15:48:38.192Z,61.17
2022-08-03T15:51:05.720Z,61.27
2022-08-03T15:53:33.519Z,60.52
2022-08-03T15:56:02.561Z,59.62
2022-08-03T15:59:04.069Z,60.78
2022-08-03T16:01:20.322Z,59.60
2022-08-03T16:03:47.513Z,59.50
2022-08-03T16:06:14.751Z,59.82
2022-08-03T16:08:41.848Z,60.08
2022-08-03T16:11:08.928Z,59.46
2022-08-03T16:14:12.415Z,60.38
2022-08-03T16:16:23.229Z,59.14
2022-08-03T16:18:50.317Z,57.78
2022-08-03T16:21:19.502Z,56.31
2022-08-03T16:23:48.908Z,53.99
2022-08-03T16:26:15.995Z,53.14
2022-08-03T16:28:43.087Z,53.49
2022-08-03T16:31:10.253Z,51.93
2022-08-03T16:33:37.393Z,49.12
2022-08-03T16:36:04.487Z,47.16
2022-08-03T16:38:31.618Z,45.84
2022-08-03T16:40:58.744Z,44.30
2022-08-03T16:43:25.895Z,42.75
2022-08-03T16:45:53.000Z,41.70
2022-08-03T16:48:20.256Z,40.28
2022-08-03T16:50:49.028Z,39.82
2022-08-03T16:53:17.223Z,39.61
2022-08-03T16:55:53.934Z,39.40
2022-08-03T16:58:34.206Z,38.87
2022-08-03T17:01:24.448Z,38.20
2022-08-03T17:04:02.411Z,37.81
2022-08-03T17:06:35.972Z,37.60
2022-08-03T17:09:08.732Z,37.38
2022-08-03T17:11:47.755Z,37.23
2022-08-03T17:14:17.171Z,36.88
2022-08-03T17:16:52.043Z,36.74
2022-08-03T17:19:23.172Z,36.43
2022-08-03T17:22:04.120Z,36.03
2022-08-03T17:24:32.926Z,35.74
2022-08-03T17:27:02.722Z,35.46
2022-08-03T17:29:32.523Z,35.24
2022-08-03T17:32:00.112Z,35.03
2022-08-03T17:34:27.220Z,34.74
2022-08-03T17:37:04.203Z,34.57
2022-08-03T17:39:56.111Z,34.44
2022-08-03T17:42:29.523Z,34.29
2022-08-03T17:45:02.393Z,34.21
2022-08-03T17:47:41.167Z,34.05
2022-08-03T17:50:24.235Z,33.93
2022-08-03T17:53:00.991Z,33.85
2022-08-03T17:55:56.441Z,33.76
2022-08-03T17:58:25.930Z,33.69
2022-08-03T18:01:59.576Z,33.62
2022-08-03T18:04:10.619Z,33.49
2022-08-03T18:06:55.504Z,33.38
2022-08-03T18:10:04.619Z,33.19
2022-08-03T18:12:26.972Z,32.95
2022-08-03T18:15:01.302Z,32.81
2022-08-03T18:17:58.315Z,32.60
2022-08-03T18:20:32.695Z,32.44
2022-08-03T18:23:24.970Z,32.32
2022-08-03T18:26:01.071Z,32.17
2022-08-03T18:28:28.959Z,32.07
2022-08-03T18:30:57.709Z,31.95
2022-08-03T18:34:17.025Z,31.84
2022-08-03T18:36:21.642Z,31.72
2022-08-03T18:38:51.837Z,31.60
2022-08-03T18:41:33.439Z,31.49
2022-08-03T18:44:09.040Z,31.35
2022-08-03T18:47:16.810Z,31.22
2022-08-03T18:50:34.780Z,31.10
2022-08-03T18:53:15.546Z,30.96
2022-08-03T18:56:06.382Z,30.84
2022-08-03T18:59:03.869Z,30.73
2022-08-03T19:02:00.004Z,30.65
2022-08-03T19:04:35.951Z,30.56
2022-08-03T19:07:08.877Z,30.47
2022-08-03T19:09:49.175Z,30.37
2022-08-03T19:12:30.940Z,30.30
2022-08-03T19:17:57.268Z,30.07
2022-08-03T19:20:27.183Z,29.95
2022-08-03T19:22:56.746Z,29.83
2022-08-03T19:29:58.838Z,29.55
2022-08-03T19:32:24.471Z,29.41
2022-08-03T19:34:51.691Z,29.31
2022-08-03T19:37:19.740Z,29.19
2022-08-03T19:39:56.345Z,29.14
2022-08-03T19:42:30.671Z,29.07
2022-08-03T19:45:11.223Z,29.01
2022-08-03T19:47:47.607Z,28.93
2022-08-03T19:50:15.769Z,28.87
2022-08-03T19:52:47.674Z,28.83
2022-08-03T19:55:17.521Z,28.74
2022-08-03T20:00:38.276Z,28.52
2022-08-03T20:03:06.583Z,28.43
2022-08-03T20:05:52.379Z,28.37
2022-08-03T20:08:21.933Z,28.29
2022-08-03T20:10:49.578Z,28.20
2022-08-03T20:13:19.321Z,28.16
2022-08-03T20:15:46.765Z,28.08
2022-08-03T20:18:16.493Z,27.98
2022-08-03T20:20:46.296Z,27.88
2022-08-03T20:23:18.106Z,27.82
2022-08-03T20:25:58.235Z,27.73
2022-08-03T20:28:32.535Z,27.69
2022-08-03T20:30:59.997Z,27.64
2022-08-03T20:33:46.303Z,27.52
2022-08-03T20:36:18.121Z,27.42
2022-08-03T20:38:47.912Z,27.35
2022-08-03T20:41:16.426Z,27.24
2022-08-03T20:43:43.929Z,27.19
2022-08-03T20:46:30.974Z,27.16
2022-08-03T20:48:58.922Z,27.12
2022-08-03T20:51:50.471Z,27.10
2022-08-03T20:54:23.159Z,27.06
2022-08-03T20:56:58.076Z,26.96
2022-08-03T20:59:36.928Z,26.88
2022-08-03T21:02:19.170Z,26.81
2022-08-03T21:04:47.293Z,26.78
2022-08-03T21:07:19.061Z,26.73
2022-08-03T21:09:52.530Z,26.65
2022-08-03T21:12:27.069Z,26.59
2022-08-03T21:13:03.269Z,28.65
2022-08-03T21:13:10.080Z,30.19
2022-08-03T21:15:04.196Z,26.57
2022-08-03T21:17:41.031Z,26.54
2022-08-03T21:20:10.668Z,26.46
2022-08-03T21:22:39.122Z,26.40
2022-08-03T21:25:09.256Z,26.37
2022-08-03T21:27:37.082Z,26.35
2022-08-03T21:30:09.273Z,26.32
2022-08-03T21:32:40.055Z,26.25
2022-08-03T21:35:09.977Z,26.21
2022-08-03T21:37:38.815Z,26.16
2022-08-03T21:40:07.764Z,26.11
2022-08-03T21:42:35.231Z,26.07
2022-08-03T21:45:05.777Z,25.99
2022-08-03T21:47:35.982Z,25.95
2022-08-03T21:50:09.548Z,25.87
2022-08-03T21:52:47.301Z,25.80
2022-08-03T21:55:20.566Z,25.76
2022-08-03T21:57:52.741Z,25.74
2022-08-03T22:00:21.376Z,25.71
2022-08-03T22:02:55.694Z,25.67
2022-08-03T22:05:29.204Z,25.63
2022-08-03T22:08:10.172Z,25.61
2022-08-03T22:10:37.289Z,25.58
2022-08-03T22:13:04.400Z,25.57
2022-08-03T22:15:32.273Z,25.52
2022-08-03T22:18:03.269Z,25.52
2022-08-03T22:20:30.781Z,25.44
2022-08-03T22:23:01.334Z,25.40
2022-08-03T22:25:30.878Z,25.37
2022-08-03T22:28:00.480Z,25.36
2022-08-03T22:30:28.127Z,25.31
2022-08-03T22:32:56.278Z,25.28
2022-08-03T22:35:25.632Z,25.25
2022-08-03T22:37:54.562Z,25.21
2022-08-03T22:40:21.862Z,25.16
2022-08-03T22:42:51.977Z,25.10
2022-08-03T22:46:07.155Z,25.06
2022-08-03T22:48:07.888Z,25.02
2022-08-03T22:50:35.343Z,24.98
2022-08-03T22:53:02.472Z,24.96
2022-08-03T22:55:29.876Z,24.94
2022-08-03T22:57:56.960Z,24.92
2022-08-03T23:00:24.777Z,24.87
2022-08-03T23:02:53.947Z,24.84
2022-08-03T23:06:02.273Z,24.82
2022-08-03T23:08:12.518Z,24.79
2022-08-03T23:10:44.875Z,24.76
2022-08-03T23:13:16.209Z,24.74
2022-08-03T23:15:50.172Z,24.72
2022-08-03T23:18:19.182Z,24.71
2022-08-03T23:20:49.882Z,24.66
2022-08-03T23:23:20.045Z,24.61
2022-08-03T23:25:49.852Z,24.56
2022-08-03T23:28:17.496Z,24.54
2022-08-03T23:30:45.427Z,24.51
2022-08-03T23:33:17.001Z,24.48
2022-08-03T23:36:28.725Z,24.43
2022-08-03T23:38:46.992Z,24.41
2022-08-03T23:41:14.845Z,24.38
2022-08-03T23:43:51.420Z,24.37
2022-08-03T23:46:21.589Z,24.32
2022-08-03T23:48:49.823Z,24.32
2022-08-03T23:51:27.053Z,24.30
2022-08-03T23:54:16.964Z,24.25
2022-08-03T23:56:52.689Z,24.24
2022-08-03T23:59:27.559Z,24.24
